Flight Track Log - Related Links

Times and Time Zones

All times are in EDT time to prevent confusion due to time zone crossing. See the N929SR flight status page for this flight to view local times or setup timezone preferences in your user account.

Time Position Orientation Groundspeed Altitude Reporting Facility
EDT Latitude Longitude Course Direction KTS MPH feet Rate Location/Type
Fri 11:24:29 AM 38.5500 -90.2333 218° Southwest 201 231 2,100  Level Gateway (St. Louis) TRACON
Fri 11:25:29 AM 38.5167 -90.2667 218° Southwest 203 234 2,700 1,118 Climbing Gateway (St. Louis) TRACON
Fri 11:26:11 AM 38.4747 -90.2672 181° South 206 237 4,000 1,442 Climbing Kansas City Center
Fri 11:27:13 AM 38.4372 -90.3242 230° Southwest 227 261 5,200 2,516 Climbing Kansas City Center
Fri 11:28:15 AM 38.4189 -90.4125 255° West 244 281 9,200 3,726 Climbing Kansas City Center
Fri 11:29:17 AM 38.4008 -90.5081 256° West 262 302 12,900 3,290 Climbing Kansas City Center
Fri 11:30:19 AM 38.3789 -90.6153 255° West 299 344 16,000 3,000 Climbing Kansas City Center
Fri 11:31:21 AM 38.3550 -90.7314 255° West 329 379 19,100 2,952 Climbing Kansas City Center
Fri 11:32:23 AM 38.3300 -90.8517 255° West 344 396 22,100 2,952 Climbing Kansas City Center
Fri 11:33:25 AM 38.3061 -90.9725 256° West 350 403 25,200 3,242 Climbing Kansas City Center
Fri 11:34:27 AM 38.2761 -91.1183 255° West 354 407 28,800 3,194 Climbing Kansas City Center
Fri 11:35:29 AM 38.2514 -91.2406 256° West 356 410 31,800 2,855 Climbing Kansas City Center
Fri 11:36:31 AM 38.2278 -91.3583 256° West 352 405 34,700 2,226 Climbing Kansas City Center
Fri 11:37:33 AM 38.2047 -91.4708 255° West 341 392 36,400 1,548 Climbing Kansas City Center
Fri 11:38:35 AM 38.1792 -91.5922 255° West 345 397 37,900 1,597 Climbing Kansas City Center
Fri 11:39:37 AM 38.1503 -91.7436 256° West 358 412 39,700 1,016 Climbing Kansas City Center
Fri 11:40:39 AM 38.1436 -91.8747 266° West 365 420 40,000 145 Climbing Kansas City Center
Fri 11:41:41 AM 38.1350 -92.0142 266° West 381 438 40,000  Level Kansas City Center
Fri 11:42:43 AM 38.1242 -92.1603 265° West 403 464 40,000  Level Kansas City Center
Fri 11:43:45 AM 38.1147 -92.3022 265° West 408 470 40,000  Level Kansas City Center
Fri 11:44:47 AM 38.1075 -92.4411 266° West 399 459 40,000  Level Kansas City Center
Fri 11:45:49 AM 38.0978 -92.5839 265° West 406 467 40,000  Level Kansas City Center
Fri 11:46:51 AM 38.0850 -92.7472 264° West 404 465 40,000  Level Kansas City Center
Fri 11:47:54 AM 38.0744 -92.8883 265° West 403 464 40,000  Level Kansas City Center
Fri 11:48:56 AM 38.0644 -93.0294 265° West 402 463 40,000  Level Kansas City Center
Fri 11:49:58 AM 38.0547 -93.1681 265° West 396 456 40,000  Level Kansas City Center
Fri 11:51:00 AM 38.0419 -93.3369 265° West 399 459 40,000  Level Kansas City Center
Fri 11:52:02 AM 38.0306 -93.4783 264° West 402 463 40,000  Level Kansas City Center
Fri 11:53:04 AM 38.0200 -93.6197 265° West 402 463 40,000  Level Kansas City Center
Fri 11:54:06 AM 38.0089 -93.7614 264° West 403 464 40,000  Level Kansas City Center
Fri 11:55:08 AM 37.9961 -93.9036 264° West 405 466 40,000  Level Kansas City Center
Fri 11:56:10 AM 37.9861 -94.0469 265° West 407 468 40,000  Level Kansas City Center
Fri 11:57:12 AM 37.9728 -94.2131 264° West 407 468 40,000  Level Kansas City Center
Fri 11:58:14 AM 37.9597 -94.3500 263° West 408 470 40,000  Level Kansas City Center
Fri 11:59:16 AM 37.9461 -94.5081 264° West 404 465 40,000  Level Kansas City Center
Fri 12:00:18 PM 37.9342 -94.6422 264° West 401 461 40,000  Level Kansas City Center
Fri 12:01:20 PM 37.9203 -94.7975 264° West 398 458 40,000  Level Kansas City Center
Fri 12:02:22 PM 37.9092 -94.9300 264° West 396 456 40,000  Level Kansas City Center
Fri 12:03:24 PM 37.8975 -95.0606 264° West 393 452 40,000  Level Kansas City Center
Fri 12:04:26 PM 37.8836 -95.2050 263° West 392 451 40,000  Level Kansas City Center
Fri 12:05:28 PM 37.8706 -95.3419 263° West 393 452 40,000  Level Kansas City Center
Fri 12:06:31 PM 37.8547 -95.5064 263° West 393 452 40,000  Level Kansas City Center
Fri 12:07:33 PM 37.8417 -95.6444 263° West 395 455 40,000  Level Kansas City Center
Fri 12:08:35 PM 37.8281 -95.7881 263° West 403 464 40,000  Level Kansas City Center
Fri 12:09:37 PM 37.8136 -95.9314 263° West 409 471 40,000  Level Kansas City Center
Fri 12:10:39 PM 37.8006 -96.0700 263° West 401 461 40,000  Level Kansas City Center
Fri 12:11:41 PM 37.7878 -96.2094 263° West 397 457 40,000  Level Kansas City Center
Fri 12:12:43 PM 37.7725 -96.3500 262° West 402 463 40,000  Level Kansas City Center
Fri 12:13:45 PM 37.7561 -96.5206 263° West 406 467 40,000  Level Kansas City Center
Fri 12:14:47 PM 37.7403 -96.6622 262° West 407 468 40,000  Level Kansas City Center
Fri 12:15:49 PM 37.7256 -96.8053 263° West 411 473 40,000  Level Kansas City Center
Fri 12:16:51 PM 37.7092 -96.9500 262° West 414 476 40,000  Level Kansas City Center
Fri 12:17:53 PM 37.6939 -97.0950 262° West 416 479 40,000  Level Kansas City Center
Fri 12:18:55 PM 37.6775 -97.2419 262° West 420 483 40,000  Level Kansas City Center
Fri 12:19:57 PM 37.6614 -97.3892 262° West 421 484 40,000  Level Kansas City Center
Fri 12:20:59 PM 37.6422 -97.5472 261° West 424 488 40,000  Level Kansas City Center
Fri 12:22:01 PM 37.6236 -97.7178 262° West 429 494 40,000  Level Kansas City Center
Fri 12:23:03 PM 37.6053 -97.8689 261° West 431 496 40,000  Level Kansas City Center
Fri 12:24:06 PM 37.5889 -98.0192 262° West 430 495 40,000  Level Kansas City Center
Fri 12:25:08 PM 37.5719 -98.1694 262° West 430 495 40,000  Level Kansas City Center
Fri 12:26:10 PM 37.5533 -98.3186 261° West 430 495 40,000  Level Kansas City Center
Fri 12:27:12 PM 37.5358 -98.4667 262° West 428 493 40,000  Level Kansas City Center
Fri 12:28:14 PM 37.5192 -98.6156 262° West 429 494 40,000  Level Kansas City Center
Fri 12:29:16 PM 37.4967 -98.7936 261° West 429 494 40,000  Level Kansas City Center
Fri 12:30:18 PM 37.4781 -98.9411 261° West 428 493 40,000  Level Kansas City Center
Fri 12:31:20 PM 37.4592 -99.0886 261° West 427 491 40,000  Level Kansas City Center
Fri 12:32:22 PM 37.4381 -99.2333 260° West 423 487 40,000  Level Kansas City Center
Fri 12:33:24 PM 37.4206 -99.3792 261° West 422 486 40,000  Level Kansas City Center
Fri 12:34:26 PM 37.4011 -99.5444 262° West 420 483 40,000  Level Kansas City Center
Fri 12:35:28 PM 37.3828 -99.6847 261° West 423 487 40,000  Level Kansas City Center
Fri 12:36:30 PM 37.3617 -99.8458 261° West 420 483 40,000  Level Kansas City Center
Fri 12:37:32 PM 37.3428 -99.9842 260° West 420 483 40,000  Level Kansas City Center
Fri 12:38:34 PM 37.3211 -100.1456 260° West 419 482 40,000  Level Kansas City Center
Fri 12:39:36 PM 37.3022 -100.2819 260° West 416 479 40,000  Level Kansas City Center
Fri 12:40:38 PM 37.2800 -100.4433 260° West 417 480 40,000  Level Kansas City Center
Fri 12:41:40 PM 37.2603 -100.5814 260° West 417 480 40,000  Level Kansas City Center
Fri 12:42:42 PM 37.2411 -100.7194 260° West 418 481 40,000  Level Kansas City Center
Fri 12:43:44 PM 37.2178 -100.8814 260° West 418 481 40,000  Level Kansas City Center
Fri 12:44:47 PM 37.1978 -101.0197 260° West 419 482 40,000  Level Kansas City Center
Fri 12:45:49 PM 37.1742 -101.1819 260° West 421 484 40,000  Level Kansas City Center
Fri 12:46:51 PM 37.1547 -101.3208 260° West 422 486 40,000  Level Kansas City Center
Fri 12:47:53 PM 37.1306 -101.4814 259° West 420 483 40,000  Level Kansas City Center
Fri 12:48:49 PM 37.1106 -101.6206 260° West 421 484 40,000  Level Albuquerque Center
Fri 12:49:51 PM 37.0894 -101.7575 259° West 419 482 40,000  Level Albuquerque Center
Fri 12:50:53 PM 37.0683 -101.8964 259° West 422 486 40,000  Level Albuquerque Center
Fri 12:51:55 PM 37.0444 -102.0578 260° West 423 487 40,000  Level Albuquerque Center
Fri 12:52:57 PM 37.0228 -102.1972 259° West 425 489 40,000  Level Albuquerque Center
Fri 12:53:59 PM 36.9986 -102.3597 259° West 426 490 40,000  Level Albuquerque Center
Fri 12:55:02 PM 36.9761 -102.5006 259° West 429 494 40,000  Level Albuquerque Center
Fri 12:56:03 PM 36.9525 -102.6581 259° West 428 493 40,000  Level Albuquerque Center
Fri 12:57:05 PM 36.9297 -102.7986 259° West 429 494 40,000  Level Albuquerque Center
Fri 12:58:07 PM 36.9036 -102.9631 259° West 431 496 40,000  Level Albuquerque Center
Fri 12:59:09 PM 36.8800 -103.1042 258° West 432 497 40,000  Level Albuquerque Center
Fri 01:00:11 PM 36.8531 -103.2700 259° West 434 499 40,000  Level Albuquerque Center
Fri 01:01:13 PM 36.8300 -103.4117 259° West 434 499 40,000  Level Albuquerque Center
Fri 01:02:15 PM 36.8022 -103.5781 258° West 436 502 40,000  Level Albuquerque Center
Fri 01:03:17 PM 36.7783 -103.7222 258° West 439 505 40,000  Level Albuquerque Center
Fri 01:04:19 PM 36.7506 -103.8872 258° West 436 502 40,000  Level Albuquerque Center
Fri 01:05:21 PM 36.7267 -104.0292 258° West 435 501 40,000  Level Albuquerque Center
Fri 01:06:23 PM 36.7022 -104.1722 258° West 437 503 40,000  Level Albuquerque Center
Fri 01:07:25 PM 36.6728 -104.3353 257° West 435 501 40,000  Level Albuquerque Center
Fri 01:08:27 PM 36.6467 -104.4847 258° West 438 504 40,000  Level Albuquerque Center
Fri 01:09:29 PM 36.6208 -104.6325 258° West 435 501 40,000  Level Albuquerque Center
Fri 01:10:31 PM 36.5936 -104.7819 257° West 439 505 40,000  Level Albuquerque Center
Fri 01:11:33 PM 36.5675 -104.9328 258° West 442 509 40,000  Level Albuquerque Center
Fri 01:12:35 PM 36.5358 -105.1064 257° West 440 506 40,000  Level Albuquerque Center
Fri 01:13:37 PM 36.5131 -105.2367 258° West 436 502 40,000  Level Albuquerque Center
Fri 01:14:39 PM 36.4844 -105.4006 258° West 435 501 40,000  Level Albuquerque Center
Fri 01:15:41 PM 36.4578 -105.5342 256° West 433 498 40,000  Level Albuquerque Center
Fri 01:16:43 PM 36.4303 -105.6797 257° West 435 501 40,000  Level Albuquerque Center
Fri 01:17:45 PM 36.3972 -105.8558 257° West 436 502 40,000  Level Albuquerque Center
Fri 01:18:47 PM 36.3714 -106.0033 258° West 437 503 40,000  Level Albuquerque Center
Fri 01:19:49 PM 36.3433 -106.1483 257° West 436 502 40,000  Level Albuquerque Center
Fri 01:20:51 PM 36.3136 -106.3000 256° West 435 501 40,000  Level Albuquerque Center
Fri 01:21:53 PM 36.2844 -106.4631 258° West 435 501 40,000  Level Albuquerque Center
Fri 01:22:55 PM 36.2553 -106.6036 256° West 437 503 40,000  Level Albuquerque Center
Fri 01:23:57 PM 36.2244 -106.7669 257° West 437 503 40,000  Level Albuquerque Center
Fri 01:24:59 PM 36.1986 -106.9089 257° West 440 506 40,000  Level Albuquerque Center
Fri 01:26:01 PM 36.1728 -107.0544 258° West 438 504 40,000  Level Albuquerque Center
Fri 01:27:03 PM 36.1403 -107.2150 256° West 442 509 40,000  Level Albuquerque Center
Fri 01:28:05 PM 36.1128 -107.3553 256° West 440 506 40,000  Level Albuquerque Center
Fri 01:29:07 PM 36.0789 -107.5194 256° West 441 507 40,000  Level Albuquerque Center
Fri 01:30:10 PM 36.0514 -107.6592 256° West 439 505 40,000  Level Albuquerque Center
Fri 01:31:12 PM 36.0167 -107.8236 255° West 441 507 40,000  Level Albuquerque Center
Fri 01:32:14 PM 35.9878 -107.9647 256° West 442 509 40,000  Level Albuquerque Center
Fri 01:33:16 PM 35.9531 -108.1283 255° West 441 507 40,000  Level Albuquerque Center
Fri 01:34:18 PM 35.9236 -108.2694 256° West 441 507 40,000  Level Albuquerque Center
Fri 01:35:21 PM 35.8889 -108.4331 255° West 441 507 40,000  Level Albuquerque Center
Fri 01:36:22 PM 35.8589 -108.5744 255° West 442 509 40,000  Level Albuquerque Center
Fri 01:37:24 PM 35.8278 -108.7150 255° West 441 507 40,000  Level Albuquerque Center
Fri 01:38:27 PM 35.7911 -108.8822 255° West 445 512 40,000 -48 Level Albuquerque Center
Fri 01:39:28 PM 35.7603 -109.0247 255° West 446 513 39,900 -390 Descending Albuquerque Center
Fri 01:40:30 PM 35.7236 -109.1908 255° West 448 516 39,200 -960 Descending Albuquerque Center
Fri 01:41:33 PM 35.6933 -109.3306 255° West 443 510 37,900 -1,452 Descending Albuquerque Center
Fri 01:42:34 PM 35.6619 -109.4733 255° West 446 513 36,200 -927 Descending Albuquerque Center
Fri 01:43:36 PM 35.6228 -109.6383 254° West 449 517 36,000 -97 Descending Albuquerque Center
Fri 01:44:38 PM 35.5903 -109.7800 254° West 448 516 36,000 -387 Level Albuquerque Center
Fri 01:45:40 PM 35.5214 -109.9322 241° Southwest 462 532 35,200 -1,065 Descending Albuquerque Center
Fri 01:46:42 PM 35.4472 -110.0539 233° Southwest 465 535 33,800 -1,500 Descending Albuquerque Center
Fri 01:47:44 PM 35.3608 -110.1975 234° Southwest 466 536 32,100 -1,500 Descending Albuquerque Center
Fri 01:48:46 PM 35.2867 -110.3169 233° Southwest 460 529 30,700 -1,452 Descending Albuquerque Center
Fri 01:49:48 PM 35.2017 -110.4569 233° Southwest 460 529 29,100 -1,452 Descending Albuquerque Center
Fri 01:50:50 PM 35.1283 -110.5772 233° Southwest 460 529 27,700 -1,548 Descending Albuquerque Center
Fri 01:51:52 PM 35.0364 -110.7167 231° Southwest 468 539 25,900 -1,548 Descending Albuquerque Center
Fri 01:52:54 PM 34.9589 -110.8278 230° Southwest 472 543 24,500 -1,403 Descending Albuquerque Center
Fri 01:53:56 PM 34.8769 -110.9506 231° Southwest 470 541 23,000 -1,548 Descending Albuquerque Center
Fri 01:54:58 PM 34.7967 -111.0672 230° Southwest 455 524 21,300 -2,032 Descending Albuquerque Center
Fri 01:56:00 PM 34.7056 -111.2028 231° Southwest 434 499 18,800 -2,081 Descending Albuquerque Center
Fri 01:57:02 PM 34.6353 -111.3014 229° Southwest 399 459 17,000 -2,081 Descending Albuquerque Center
Fri 01:58:04 PM 34.5611 -111.4056 229° Southwest 404 465 14,500 -2,419 Descending Albuquerque Center
Fri 01:59:06 PM 34.4928 -111.5106 232° Southwest 403 464 12,000 -1,707 Descending Albuquerque Center
Fri 02:00:07 PM 34.4272 -111.6025 229° Southwest 376 433 11,000 -488 Descending Albuquerque Center
Fri 02:01:09 PM 34.3619 -111.6939 229° Southwest 364 419 11,000  Level Albuquerque Center
Fri 02:02:12 PM 34.2842 -111.8033 229° Southwest 362 417 11,000  Level Albuquerque Center
Fri 02:03:13 PM 34.2322 -111.8769 230° Southwest 303 349 11,000 49 Level Albuquerque Center
Fri 02:04:15 PM 34.1633 -111.9247 210° Southwest 301 346 11,100 -290 Climbing Albuquerque Center
Fri 02:05:17 PM 34.0828 -111.9306 183° South 297 342 10,400 -968 Descending Albuquerque Center
Fri 02:06:19 PM 33.9883 -111.9353 182° South 290 334 9,100 -1,210 Descending Albuquerque Center
Fri 02:07:21 PM 33.9133 -111.9403 183° South 279 321 7,900 -1,161 Descending Albuquerque Center
Fri 02:08:23 PM 33.8439 -111.9292 172° South 257 296 6,700 -1,113 Descending Albuquerque Center
Fri 02:09:25 PM 33.7800 -111.9133 168° South 241 277 5,600 -1,258 Descending Albuquerque Center
Fri 02:10:27 PM 33.7294 -111.9000 168° South 210 242 4,100 -1,306 Descending Albuquerque Center
Fri 02:11:29 PM 33.6767 -111.8878 169° South 180 207 2,900 -1,016 Descending Albuquerque Center
Fri 02:12:31 PM 33.6428 -111.8861 178° South 168 193 2,000 -435 Descending Albuquerque Center
Fri 02:13:33 PM 33.6044 -111.9378 228° Southwest 168 193 2,000  Level Albuquerque Center

Login

Don't have an account? Register now (free) for customized features, flight alerts, and more!